Time;durP1;ratioP1;P1;durP2;ratioP2;P2;SDS_P1;SDS_P2;PMS_P1;PMS_P2;Temp;Humidity;BMP_temperature;BMP_pressure;BME280_temperature;BME280_humidity;BME280_pressure;Samples;Min_cycle;Max_cycle;Signal;HPM_P1;HPM_P2
2023/10/11 00:00:37;;;;;;;6.35;4.60;;;;;;;;;;5056457;28;20388;-79
2023/10/11 00:05:48;;;;;;;7.43;4.70;;;;;;;;;;5056587;28;20385;-78
2023/10/11 00:08:16;;;;;;;7.20;4.68;;;;;;;;;;5056804;28;20377;-79
2023/10/11 00:10:47;;;;;;;7.47;4.75;;;;;;;;;;5056727;28;20449;-78
2023/10/11 00:13:15;;;;;;;7.38;4.90;;;;;;;;;;5056622;28;20424;-78
2023/10/11 00:15:41;;;;;;;7.97;4.40;;;;;;;;;;5055379;28;20381;-78
2023/10/11 00:18:07;;;;;;;8.57;5.00;;;;;;;;;;5037712;28;20489;-79
2023/10/11 00:23:05;;;;;;;6.07;4.38;;;;;;;;;;5049675;28;20381;-79
2023/10/11 00:25:31;;;;;;;7.30;4.90;;;;;;;;;;5055986;28;20403;-78
2023/10/11 00:27:58;;;;;;;6.15;4.53;;;;;;;;;;5056574;28;20385;-79
2023/10/11 00:30:24;;;;;;;6.93;4.50;;;;;;;;;;5056237;28;20500;-79
2023/10/11 00:32:52;;;;;;;8.43;4.60;;;;;;;;;;5056650;28;20855;-78
2023/10/11 00:35:18;;;;;;;7.63;4.72;;;;;;;;;;5055845;28;20381;-79
2023/10/11 00:37:51;;;;;;;7.18;4.47;;;;;;;;;;5056059;28;20387;-79
2023/10/11 00:40:25;;;;;;;6.97;4.32;;;;;;;;;;5055984;28;20400;-79
2023/10/11 00:42:51;;;;;;;5.82;4.40;;;;;;;;;;5056384;28;20384;-79
2023/10/11 00:45:18;;;;;;;9.23;4.90;;;;;;;;;;5056274;28;20400;-79
2023/10/11 00:47:45;;;;;;;7.22;4.53;;;;;;;;;;5055946;28;20389;-79
2023/10/11 00:50:15;;;;;;;6.47;4.57;;;;;;;;;;5056412;28;20392;-79
2023/10/11 00:52:47;;;;;;;6.22;4.47;;;;;;;;;;5056441;28;20396;-79
2023/10/11 00:55:18;;;;;;;7.82;4.90;;;;;;;;;;5056308;28;20731;-79
2023/10/11 00:57:53;;;;;;;5.53;4.45;;;;;;;;;;5056314;28;20382;-79
2023/10/11 01:00:23;;;;;;;6.00;4.30;;;;;;;;;;5055969;28;20408;-79
2023/10/11 01:02:54;;;;;;;6.32;4.38;;;;;;;;;;5037605;28;20393;-79
2023/10/11 01:05:20;;;;;;;7.15;4.53;;;;;;;;;;5051878;28;20768;-78
2023/10/11 01:07:50;;;;;;;5.43;4.50;;;;;;;;;;5054288;28;20408;-79
2023/10/11 01:10:18;;;;;;;6.78;4.10;;;;;;;;;;5055449;28;20397;-81
2023/10/11 01:12:44;;;;;;;5.90;3.92;;;;;;;;;;5056273;28;20510;-79
2023/10/11 01:15:14;;;;;;;5.80;4.30;;;;;;;;;;5056066;28;20420;-78
2023/10/11 01:17:40;;;;;;;7.18;4.53;;;;;;;;;;5055793;28;20826;-78
2023/10/11 01:20:17;;;;;;;5.45;4.40;;;;;;;;;;5055770;28;20409;-78
2023/10/11 01:22:46;;;;;;;5.25;4.38;;;;;;;;;;5055120;28;20374;-79
2023/10/11 01:25:12;;;;;;;7.50;4.40;;;;;;;;;;5055209;28;20401;-79
2023/10/11 01:27:44;;;;;;;6.53;4.53;;;;;;;;;;5054774;28;20726;-78
2023/10/11 01:30:11;;;;;;;8.15;4.70;;;;;;;;;;5055205;28;20391;-80
2023/10/11 01:32:41;;;;;;;5.47;4.43;;;;;;;;;;5055254;28;20426;-78
2023/10/11 01:35:08;;;;;;;5.80;4.80;;;;;;;;;;5055797;28;20876;-80
2023/10/11 01:37:41;;;;;;;8.13;4.60;;;;;;;;;;5053330;28;20404;-79
2023/10/11 01:40:11;;;;;;;7.03;4.80;;;;;;;;;;5045484;28;20468;-79
2023/10/11 01:42:37;;;;;;;5.47;4.50;;;;;;;;;;5055326;28;20385;-79
2023/10/11 01:45:07;;;;;;;6.55;4.40;;;;;;;;;;5055149;28;20782;-79
2023/10/11 01:47:34;;;;;;;7.18;4.55;;;;;;;;;;5054834;28;20839;-79
2023/10/11 01:50:00;;;;;;;6.28;4.22;;;;;;;;;;5036914;28;20397;-79
2023/10/11 01:52:26;;;;;;;7.18;4.50;;;;;;;;;;5054745;28;20928;-79
2023/10/11 01:54:55;;;;;;;5.60;4.30;;;;;;;;;;5054573;28;20377;-79
2023/10/11 01:57:22;;;;;;;4.72;3.90;;;;;;;;;;5054519;28;20395;-78
2023/10/11 01:59:48;;;;;;;8.77;4.80;;;;;;;;;;5041984;28;20919;-78
2023/10/11 02:02:15;;;;;;;6.60;4.63;;;;;;;;;;5054281;28;20424;-79
2023/10/11 02:04:41;;;;;;;5.57;4.43;;;;;;;;;;5036737;28;20392;-79
2023/10/11 02:07:07;;;;;;;5.80;4.13;;;;;;;;;;5054463;28;20386;-78
2023/10/11 02:09:33;;;;;;;7.00;4.60;;;;;;;;;;5054704;28;20784;-78
2023/10/11 02:11:59;;;;;;;6.05;4.50;;;;;;;;;;5045094;28;20405;-78
2023/10/11 02:14:29;;;;;;;5.32;4.10;;;;;;;;;;5046619;28;20420;-78
2023/10/11 02:16:55;;;;;;;5.90;4.20;;;;;;;;;;5038971;28;20410;-77
2023/10/11 02:19:24;;;;;;;5.03;4.10;;;;;;;;;;5049079;28;20378;-79
2023/10/11 02:21:53;;;;;;;6.50;4.38;;;;;;;;;;5052757;28;20388;-79
2023/10/11 02:24:19;;;;;;;5.68;4.30;;;;;;;;;;5035298;28;20403;-78
2023/10/11 02:26:49;;;;;;;6.13;4.43;;;;;;;;;;5053975;28;20842;-78
2023/10/11 02:29:20;;;;;;;7.13;5.20;;;;;;;;;;5054969;28;20535;-78
2023/10/11 02:31:50;;;;;;;6.63;5.15;;;;;;;;;;5058384;28;20402;-78
2023/10/11 02:34:16;;;;;;;6.43;4.50;;;;;;;;;;5054077;28;20491;-78
2023/10/11 02:36:43;;;;;;;5.25;4.68;;;;;;;;;;5054085;28;20735;-79
2023/10/11 02:39:21;;;;;;;6.60;4.80;;;;;;;;;;5054043;28;20373;-78
2023/10/11 02:41:55;;;;;;;6.38;4.38;;;;;;;;;;5053978;28;20869;-79
2023/10/11 02:44:22;;;;;;;7.55;5.03;;;;;;;;;;5053782;28;20398;-78
2023/10/11 02:46:49;;;;;;;7.47;4.30;;;;;;;;;;5054235;28;20385;-79
2023/10/11 02:49:21;;;;;;;5.83;4.47;;;;;;;;;;5052709;28;20456;-79
2023/10/11 02:51:56;;;;;;;6.10;4.55;;;;;;;;;;5057659;28;20417;-79
2023/10/11 02:57:19;;;;;;;6.32;4.25;;;;;;;;;;5044095;28;20381;-80
2023/10/11 02:59:50;;;;;;;4.88;4.28;;;;;;;;;;5057688;28;20408;-80
2023/10/11 03:02:16;;;;;;;5.22;4.22;;;;;;;;;;5057215;28;20401;-78
2023/10/11 03:04:42;;;;;;;7.18;4.47;;;;;;;;;;5057029;28;20431;-78
2023/10/11 03:07:21;;;;;;;6.35;3.92;;;;;;;;;;5057430;28;20377;-79
2023/10/11 03:09:47;;;;;;;5.57;4.23;;;;;;;;;;5057747;28;20409;-79
2023/10/11 03:12:24;;;;;;;5.97;3.97;;;;;;;;;;5056953;28;20416;-80
2023/10/11 03:14:54;;;;;;;5.22;4.30;;;;;;;;;;5057462;28;20755;-77
2023/10/11 03:17:20;;;;;;;6.82;4.55;;;;;;;;;;5039355;28;20402;-78
2023/10/11 03:19:49;;;;;;;7.10;4.65;;;;;;;;;;5057285;28;20385;-80
2023/10/11 03:22:21;;;;;;;7.03;5.22;;;;;;;;;;5057139;28;20378;-80
2023/10/11 03:24:59;;;;;;;7.53;5.15;;;;;;;;;;5058368;28;20931;-80
2023/10/11 03:27:27;;;;;;;6.55;4.50;;;;;;;;;;5057471;28;20377;-80
2023/10/11 03:29:53;;;;;;;6.47;4.70;;;;;;;;;;5039534;28;20443;-80
2023/10/11 03:32:19;;;;;;;6.50;4.53;;;;;;;;;;5058225;28;20413;-80
2023/10/11 03:34:46;;;;;;;6.60;4.47;;;;;;;;;;5039754;28;20510;-80
2023/10/11 03:37:18;;;;;;;5.45;3.97;;;;;;;;;;5055973;28;20386;-80
2023/10/11 03:39:44;;;;;;;5.78;4.28;;;;;;;;;;5056329;28;20769;-79
2023/10/11 03:44:40;;;;;;;8.52;5.10;;;;;;;;;;5056508;28;20381;-79
2023/10/11 03:47:08;;;;;;;7.70;5.30;;;;;;;;;;5056451;28;20385;-80
2023/10/11 03:49:37;;;;;;;7.72;5.20;;;;;;;;;;5056026;28;20377;-79
2023/10/11 03:52:04;;;;;;;7.73;5.20;;;;;;;;;;5054588;28;20417;-80
2023/10/11 03:54:30;;;;;;;6.20;4.63;;;;;;;;;;5056021;28;20380;-79
2023/10/11 03:56:56;;;;;;;7.93;5.10;;;;;;;;;;5056605;28;20377;-80
2023/10/11 03:59:26;;;;;;;8.18;5.18;;;;;;;;;;5056659;28;20377;-80
2023/10/11 04:01:52;;;;;;;7.68;5.22;;;;;;;;;;5055894;28;20378;-80
2023/10/11 04:04:20;;;;;;;8.27;5.60;;;;;;;;;;5056394;28;20382;-80
2023/10/11 04:07:04;;;;;;;8.38;5.63;;;;;;;;;;5055899;28;20443;-80
2023/10/11 04:09:37;;;;;;;5.90;4.63;;;;;;;;;;5056740;28;20797;-80
2023/10/11 04:12:04;;;;;;;9.48;5.35;;;;;;;;;;5056703;28;20413;-80
2023/10/11 04:14:39;;;;;;;7.78;5.47;;;;;;;;;;5056523;28;20385;-80
2023/10/11 04:17:26;;;;;;;8.93;5.45;;;;;;;;;;5056505;28;20382;-80
2023/10/11 04:19:52;;;;;;;7.22;5.15;;;;;;;;;;5056814;28;20408;-80
2023/10/11 04:22:23;;;;;;;7.88;5.13;;;;;;;;;;5056629;28;20412;-80
2023/10/11 04:24:55;;;;;;;5.53;4.68;;;;;;;;;;5046988;28;20399;-80
2023/10/11 04:29:51;;;;;;;7.18;4.85;;;;;;;;;;5046403;28;20369;-80
2023/10/11 04:35:25;;;;;;;6.20;4.70;;;;;;;;;;4975148;28;20384;-80
2023/10/11 04:37:54;;;;;;;7.28;4.78;;;;;;;;;;4975064;28;20400;-80
2023/10/11 04:43:08;;;;;;;6.22;4.65;;;;;;;;;;4975245;28;20392;-80
2023/10/11 04:45:44;;;;;;;5.30;4.80;;;;;;;;;;4974810;28;20450;-79
2023/10/11 04:48:29;;;;;;;7.65;4.85;;;;;;;;;;4975137;28;20455;-80
2023/10/11 04:50:56;;;;;;;10.50;4.82;;;;;;;;;;4975034;28;20882;-80
2023/10/11 04:53:32;;;;;;;8.15;4.95;;;;;;;;;;4975661;28;20408;-81
2023/10/11 04:55:59;;;;;;;7.20;4.88;;;;;;;;;;4973380;28;20404;-80
2023/10/11 04:58:49;;;;;;;8.10;5.10;;;;;;;;;;4974928;28;20395;-80
2023/10/11 05:01:22;;;;;;;6.13;4.25;;;;;;;;;;4974960;28;20403;-80
2023/10/11 05:03:58;;;;;;;5.22;4.13;;;;;;;;;;4958429;28;20434;-79
2023/10/11 05:06:30;;;;;;;7.00;4.47;;;;;;;;;;5025196;28;20397;-80
2023/10/11 05:09:03;;;;;;;5.57;4.30;;;;;;;;;;5037817;28;20929;-80
2023/10/11 05:14:38;;;;;;;6.43;4.80;;;;;;;;;;5024339;28;20386;-80
2023/10/11 05:19:40;;;;;;;5.85;4.68;;;;;;;;;;5056622;28;20409;-81
2023/10/11 05:22:08;;;;;;;7.50;4.53;;;;;;;;;;5055914;28;20439;-81
2023/10/11 05:32:49;;;;;;;5.95;4.45;;;;;;;;;;5056008;28;20433;-80
2023/10/11 05:35:24;;;;;;;6.82;4.85;;;;;;;;;;5053732;28;20743;-80
2023/10/11 05:51:40;;;;;;;9.13;5.05;;;;;;;;;;5042603;28;20496;-79
2023/10/11 05:54:11;;;;;;;7.20;4.95;;;;;;;;;;5054271;28;20406;-79
2023/10/11 05:56:41;;;;;;;9.35;5.65;;;;;;;;;;5048703;28;20389;-80
2023/10/11 05:59:12;;;;;;;7.78;5.10;;;;;;;;;;5054015;28;20835;-79
2023/10/11 06:01:38;;;;;;;5.95;4.97;;;;;;;;;;5054066;28;20373;-80
2023/10/11 06:04:04;;;;;;;9.35;5.40;;;;;;;;;;5055388;28;20893;-79
2023/10/11 06:06:41;;;;;;;7.30;4.60;;;;;;;;;;5055451;28;20385;-79
2023/10/11 06:09:16;;;;;;;6.32;4.72;;;;;;;;;;5047773;28;20388;-79
2023/10/11 06:11:47;;;;;;;7.90;4.72;;;;;;;;;;5055000;28;20557;-80
2023/10/11 06:14:16;;;;;;;6.15;4.93;;;;;;;;;;5047269;28;20454;-79
2023/10/11 06:16:44;;;;;;;7.10;4.70;;;;;;;;;;5052461;28;20389;-79
2023/10/11 06:19:19;;;;;;;7.97;4.82;;;;;;;;;;5055572;28;20412;-79
2023/10/11 06:22:09;;;;;;;6.95;4.72;;;;;;;;;;5055994;28;20385;-80
2023/10/11 06:24:36;;;;;;;6.87;4.60;;;;;;;;;;5044091;28;20745;-80
2023/10/11 06:29:54;;;;;;;7.00;4.65;;;;;;;;;;5045723;28;20735;-80
2023/10/11 06:32:23;;;;;;;5.72;4.75;;;;;;;;;;5055755;28;20559;-80
2023/10/11 06:34:50;;;;;;;6.50;5.10;;;;;;;;;;5060351;28;20393;-80
2023/10/11 06:37:18;;;;;;;7.30;4.72;;;;;;;;;;5059449;28;20829;-81
2023/10/11 06:42:18;;;;;;;6.43;4.97;;;;;;;;;;5057233;28;20401;-80
2023/10/11 06:44:47;;;;;;;8.13;4.95;;;;;;;;;;5058489;28;20401;-80
2023/10/11 06:47:18;;;;;;;6.22;4.63;;;;;;;;;;5059316;28;20420;-79
2023/10/11 06:49:47;;;;;;;7.90;5.37;;;;;;;;;;5056140;28;20393;-80
2023/10/11 06:52:15;;;;;;;9.05;5.80;;;;;;;;;;5056548;28;20882;-81
2023/10/11 06:54:46;;;;;;;6.97;5.13;;;;;;;;;;5054868;28;20382;-80
2023/10/11 06:57:21;;;;;;;6.30;4.93;;;;;;;;;;5055654;28;20455;-80
2023/10/11 06:59:56;;;;;;;7.50;5.55;;;;;;;;;;5056084;28;20408;-81
2023/10/11 07:02:31;;;;;;;6.97;5.68;;;;;;;;;;5054837;28;20389;-81
2023/10/11 07:05:06;;;;;;;7.57;5.32;;;;;;;;;;5054208;28;20393;-80
2023/10/11 07:07:32;;;;;;;7.30;5.55;;;;;;;;;;5054803;28;20435;-80
2023/10/11 07:10:00;;;;;;;7.15;5.80;;;;;;;;;;5055534;28;20381;-80
2023/10/11 07:12:39;;;;;;;6.95;5.82;;;;;;;;;;5036136;28;20441;-80
2023/10/11 07:15:07;;;;;;;9.18;7.38;;;;;;;;;;5053469;28;20926;-80
2023/10/11 07:17:33;;;;;;;9.25;8.30;;;;;;;;;;5053758;28;20385;-80
2023/10/11 07:20:00;;;;;;;7.18;6.13;;;;;;;;;;5053251;28;20427;-79
2023/10/11 07:22:26;;;;;;;7.25;6.55;;;;;;;;;;5053021;28;20373;-80
2023/10/11 07:24:55;;;;;;;7.53;6.70;;;;;;;;;;5054585;28;20795;-80
2023/10/11 07:27:37;;;;;;;9.23;6.90;;;;;;;;;;5053012;28;20378;-80
2023/10/11 07:30:16;;;;;;;6.80;6.05;;;;;;;;;;5054530;28;20377;-80
2023/10/11 07:32:42;;;;;;;6.43;5.83;;;;;;;;;;5041258;28;20461;-80
2023/10/11 07:35:17;;;;;;;8.43;6.25;;;;;;;;;;5055366;28;20384;-80
2023/10/11 07:37:44;;;;;;;8.38;7.00;;;;;;;;;;5057529;28;20401;-80
2023/10/11 07:40:12;;;;;;;7.85;6.60;;;;;;;;;;5058668;28;20384;-78
2023/10/11 07:42:38;;;;;;;8.35;7.55;;;;;;;;;;5058839;28;20385;-80
2023/10/11 07:45:12;;;;;;;10.45;7.22;;;;;;;;;;5058501;28;20419;-80
2023/10/11 07:47:45;;;;;;;8.32;7.47;;;;;;;;;;5058093;28;20397;-80
2023/10/11 07:50:14;;;;;;;9.20;8.30;;;;;;;;;;5039446;28;20428;-79
2023/10/11 07:52:41;;;;;;;8.82;7.68;;;;;;;;;;5057747;28;20421;-80
2023/10/11 07:55:12;;;;;;;13.00;9.32;;;;;;;;;;5057715;28;20407;-80
2023/10/11 07:57:44;;;;;;;14.13;11.85;;;;;;;;;;5057617;28;20392;-80
2023/10/11 08:00:16;;;;;;;20.60;13.20;;;;;;;;;;5057625;28;20865;-80
2023/10/11 08:02:43;;;;;;;21.60;13.02;;;;;;;;;;5057292;28;20396;-80
2023/10/11 08:05:14;;;;;;;20.55;12.70;;;;;;;;;;5057637;28;20393;-80
2023/10/11 08:07:40;;;;;;;18.38;12.60;;;;;;;;;;5056863;28;20396;-80
2023/10/11 08:10:28;;;;;;;18.23;11.85;;;;;;;;;;5057322;28;20434;-80
2023/10/11 08:12:54;;;;;;;22.25;13.75;;;;;;;;;;5056675;28;20393;-80
2023/10/11 08:15:25;;;;;;;20.70;13.80;;;;;;;;;;5056517;28;20378;-79
2023/10/11 08:17:51;;;;;;;20.55;13.40;;;;;;;;;;5056676;28;20384;-79
2023/10/11 08:20:17;;;;;;;15.73;12.57;;;;;;;;;;5056916;28;20377;-80
2023/10/11 08:22:47;;;;;;;16.65;11.48;;;;;;;;;;5057176;28;20397;-79
2023/10/11 08:25:13;;;;;;;16.43;11.10;;;;;;;;;;5057195;28;20409;-79
2023/10/11 08:27:39;;;;;;;17.70;11.65;;;;;;;;;;5057153;28;20382;-80
2023/10/11 08:30:08;;;;;;;16.63;12.18;;;;;;;;;;5056297;28;20385;-79
2023/10/11 08:32:37;;;;;;;14.25;10.95;;;;;;;;;;5056142;28;20413;-80
2023/10/11 08:35:04;;;;;;;19.05;11.48;;;;;;;;;;5038645;28;20432;-79
2023/10/11 08:37:31;;;;;;;20.50;12.17;;;;;;;;;;5056211;28;20446;-79
2023/10/11 08:39:57;;;;;;;19.98;12.07;;;;;;;;;;5056866;28;20468;-80
2023/10/11 08:42:30;;;;;;;20.48;11.85;;;;;;;;;;5056793;28;20841;-79
2023/10/11 08:45:00;;;;;;;21.05;12.60;;;;;;;;;;5056738;28;20851;-80
2023/10/11 08:47:29;;;;;;;18.48;11.25;;;;;;;;;;5055790;28;20393;-80
2023/10/11 08:49:55;;;;;;;16.92;10.82;;;;;;;;;;5056210;28;20452;-80
2023/10/11 08:52:28;;;;;;;17.25;11.65;;;;;;;;;;5056632;28;20428;-80
2023/10/11 08:54:54;;;;;;;18.45;11.90;;;;;;;;;;5042494;28;20928;-79
2023/10/11 08:57:23;;;;;;;20.35;11.20;;;;;;;;;;5055647;28;20712;-80
2023/10/11 08:59:50;;;;;;;13.52;9.60;;;;;;;;;;5054338;28;20388;-79
2023/10/11 09:02:17;;;;;;;15.82;8.82;;;;;;;;;;5053588;28;20836;-80
2023/10/11 09:05:32;;;;;;;12.27;8.47;;;;;;;;;;5054589;28;20521;-80
2023/10/11 09:08:02;;;;;;;11.40;7.93;;;;;;;;;;5011379;28;20468;-79
2023/10/11 09:10:30;;;;;;;13.88;7.55;;;;;;;;;;5055794;28;20381;-79
2023/10/11 09:12:56;;;;;;;13.02;8.52;;;;;;;;;;5054977;28;20381;-79
2023/10/11 09:15:40;;;;;;;16.13;8.40;;;;;;;;;;5054361;28;20702;-79
2023/10/11 09:18:12;;;;;;;17.98;10.60;;;;;;;;;;5055400;28;20458;-80
2023/10/11 09:20:40;;;;;;;17.35;10.43;;;;;;;;;;5044374;28;20377;-80
2023/10/11 09:23:06;;;;;;;15.68;9.65;;;;;;;;;;5055815;28;20377;-80
2023/10/11 09:25:47;;;;;;;14.13;9.88;;;;;;;;;;5053698;28;20385;-80
2023/10/11 09:28:16;;;;;;;18.23;9.03;;;;;;;;;;5048235;28;20468;-80
2023/10/11 09:30:44;;;;;;;18.70;9.65;;;;;;;;;;5056781;28;20419;-80
2023/10/11 09:33:17;;;;;;;12.88;8.30;;;;;;;;;;5059739;28;20377;-80
2023/10/11 09:35:48;;;;;;;17.90;10.52;;;;;;;;;;5062568;28;20389;-80
2023/10/11 09:38:19;;;;;;;18.73;10.18;;;;;;;;;;5061445;28;20846;-80
2023/10/11 09:40:45;;;;;;;14.35;9.73;;;;;;;;;;5041268;28;20385;-80
2023/10/11 09:43:16;;;;;;;13.18;6.80;;;;;;;;;;5032797;28;20383;-80
2023/10/11 09:45:43;;;;;;;15.40;9.35;;;;;;;;;;5054573;28;20754;-80
2023/10/11 09:48:15;;;;;;;11.23;6.40;;;;;;;;;;5025326;28;20379;-81
2023/10/11 09:50:41;;;;;;;12.68;6.25;;;;;;;;;;5041380;28;20387;-81
2023/10/11 09:53:14;;;;;;;15.98;7.60;;;;;;;;;;5060095;28;20444;-80
2023/10/11 09:55:45;;;;;;;9.18;6.32;;;;;;;;;;5060321;28;20453;-81
2023/10/11 09:58:17;;;;;;;10.82;5.30;;;;;;;;;;5058972;28;20396;-83
2023/10/11 10:01:08;;;;;;;8.25;4.60;;;;;;;;;;5060582;28;20400;-82
2023/10/11 10:03:38;;;;;;;10.13;5.07;;;;;;;;;;5059957;28;20457;-82
2023/10/11 10:06:08;;;;;;;13.00;5.75;;;;;;;;;;5040318;28;20389;-82
2023/10/11 10:08:34;;;;;;;12.75;5.05;;;;;;;;;;5038678;28;20401;-82
2023/10/11 10:11:02;;;;;;;10.33;4.83;;;;;;;;;;5056275;28;20479;-82
2023/10/11 10:13:28;;;;;;;11.98;4.82;;;;;;;;;;5037236;28;20472;-82
2023/10/11 10:15:57;;;;;;;11.02;5.10;;;;;;;;;;5056192;28;20374;-82
2023/10/11 10:18:24;;;;;;;10.20;4.80;;;;;;;;;;5056477;28;20384;-82
2023/10/11 10:21:02;;;;;;;12.83;5.57;;;;;;;;;;5056068;28;20382;-82
2023/10/11 10:23:29;;;;;;;11.27;5.57;;;;;;;;;;5037998;28;20483;-82
2023/10/11 10:26:04;;;;;;;8.98;4.93;;;;;;;;;;5057536;28;20726;-82
2023/10/11 10:28:36;;;;;;;11.75;5.07;;;;;;;;;;5057648;28;20387;-82
2023/10/11 10:31:16;;;;;;;8.38;4.80;;;;;;;;;;5057967;28;20441;-82
2023/10/11 10:33:43;;;;;;;11.88;4.53;;;;;;;;;;5058113;28;20924;-83
2023/10/11 10:36:21;;;;;;;9.43;4.38;;;;;;;;;;5040669;28;20400;-83
2023/10/11 10:38:59;;;;;;;8.98;4.38;;;;;;;;;;5059470;28;20412;-83
2023/10/11 10:41:26;;;;;;;10.98;5.00;;;;;;;;;;5058944;28;20908;-83
2023/10/11 10:44:02;;;;;;;10.23;5.00;;;;;;;;;;5059034;28;20378;-82
2023/10/11 10:46:29;;;;;;;9.00;4.67;;;;;;;;;;5042489;28;20398;-82
2023/10/11 10:48:56;;;;;;;10.07;4.55;;;;;;;;;;5060888;28;20893;-82
2023/10/11 10:51:25;;;;;;;8.45;5.00;;;;;;;;;;5060320;28;20417;-83
2023/10/11 10:53:53;;;;;;;8.27;4.60;;;;;;;;;;5062494;28;20393;-84
2023/10/11 10:56:19;;;;;;;11.30;4.57;;;;;;;;;;5041399;28;20420;-83
2023/10/11 10:58:46;;;;;;;14.30;4.90;;;;;;;;;;5058028;28;20964;-82
2023/10/11 11:01:12;;;;;;;8.98;4.40;;;;;;;;;;5059297;28;20459;-82
2023/10/11 11:03:41;;;;;;;7.28;4.47;;;;;;;;;;5060502;28;20388;-83
2023/10/11 11:06:11;;;;;;;7.40;4.20;;;;;;;;;;5044621;28;20411;-83
2023/10/11 11:08:39;;;;;;;9.85;4.07;;;;;;;;;;5063927;28;20378;-83
2023/10/11 11:11:27;;;;;;;9.70;4.18;;;;;;;;;;5048534;28;20405;-83
2023/10/11 11:13:56;;;;;;;7.80;3.70;;;;;;;;;;5067762;28;20385;-83
2023/10/11 11:16:26;;;;;;;10.55;4.50;;;;;;;;;;5067539;28;20385;-83
2023/10/11 11:19:00;;;;;;;9.77;4.15;;;;;;;;;;5060718;28;20458;-85
2023/10/11 11:21:29;;;;;;;9.30;4.00;;;;;;;;;;5048543;28;20441;-83
2023/10/11 11:23:56;;;;;;;34.70;5.53;;;;;;;;;;5065883;28;20797;-83
2023/10/11 11:26:23;;;;;;;14.70;4.57;;;;;;;;;;5064123;28;20381;-83
2023/10/11 11:29:08;;;;;;;8.68;4.15;;;;;;;;;;5064619;28;20398;-83
2023/10/11 11:31:51;;;;;;;18.33;4.15;;;;;;;;;;5047709;28;20416;-81
2023/10/11 11:34:27;;;;;;;9.57;4.28;;;;;;;;;;5065164;28;20432;-81
2023/10/11 11:37:00;;;;;;;11.53;4.40;;;;;;;;;;5065532;28;20476;-82
2023/10/11 11:39:36;;;;;;;9.82;4.03;;;;;;;;;;5044994;28;20389;-82
2023/10/11 11:42:24;;;;;;;10.48;3.75;;;;;;;;;;5060367;28;20461;-81
2023/10/11 11:44:51;;;;;;;8.88;3.80;;;;;;;;;;5062431;28;20385;-82
2023/10/11 11:47:23;;;;;;;25.38;4.85;;;;;;;;;;5053546;28;20502;-81
2023/10/11 11:49:49;;;;;;;12.82;4.47;;;;;;;;;;5037496;28;20405;-81
2023/10/11 11:52:18;;;;;;;8.70;3.55;;;;;;;;;;5059731;28;20429;-81
2023/10/11 11:54:44;;;;;;;9.27;3.83;;;;;;;;;;5064476;28;20382;-82
2023/10/11 11:57:10;;;;;;;7.40;3.80;;;;;;;;;;5063319;28;20385;-81
2023/10/11 11:59:38;;;;;;;6.90;4.18;;;;;;;;;;5061205;28;20474;-82
2023/10/11 12:02:09;;;;;;;8.93;4.18;;;;;;;;;;5060997;28;20445;-81
2023/10/11 12:04:36;;;;;;;8.13;3.95;;;;;;;;;;5059836;28;20381;-81
2023/10/11 12:07:09;;;;;;;7.55;3.80;;;;;;;;;;5062918;28;20953;-81
2023/10/11 12:09:37;;;;;;;7.75;3.83;;;;;;;;;;5062779;28;20389;-81
2023/10/11 12:12:05;;;;;;;10.32;4.10;;;;;;;;;;5062061;28;20903;-82
2023/10/11 12:14:37;;;;;;;5.90;3.75;;;;;;;;;;5062963;28;20385;-81
2023/10/11 12:17:09;;;;;;;6.45;3.90;;;;;;;;;;5059847;28;20412;-82
2023/10/11 12:19:41;;;;;;;9.55;4.03;;;;;;;;;;5061566;28;20390;-81
2023/10/11 12:22:14;;;;;;;9.57;3.90;;;;;;;;;;5060245;28;20731;-81
2023/10/11 12:24:46;;;;;;;14.85;5.10;;;;;;;;;;5057599;28;20855;-80
2023/10/11 12:27:12;;;;;;;13.25;5.93;;;;;;;;;;5038805;28;20400;-79
2023/10/11 12:29:38;;;;;;;11.93;6.50;;;;;;;;;;5049230;28;20478;-79
2023/10/11 12:32:04;;;;;;;10.82;6.20;;;;;;;;;;5050848;28;20424;-80
2023/10/11 12:34:32;;;;;;;17.05;6.53;;;;;;;;;;5038064;28;20438;-80
2023/10/11 12:37:00;;;;;;;9.95;3.70;;;;;;;;;;5057287;28;20927;-79
2023/10/11 12:39:30;;;;;;;18.02;4.43;;;;;;;;;;5038798;28;20420;-79
2023/10/11 12:41:59;;;;;;;16.70;4.68;;;;;;;;;;5057026;28;20386;-79
2023/10/11 12:44:28;;;;;;;7.90;3.67;;;;;;;;;;5056928;28;20487;-80
2023/10/11 12:46:54;;;;;;;7.83;3.50;;;;;;;;;;5057244;28;20389;-80
2023/10/11 12:49:20;;;;;;;9.38;3.92;;;;;;;;;;5057049;28;20449;-80
2023/10/11 12:51:47;;;;;;;9.23;4.07;;;;;;;;;;5038947;28;20421;-79
2023/10/11 12:54:19;;;;;;;11.18;3.70;;;;;;;;;;5056822;28;20393;-79
2023/10/11 12:56:46;;;;;;;10.27;4.00;;;;;;;;;;5056897;28;20388;-79
2023/10/11 12:59:13;;;;;;;8.57;4.00;;;;;;;;;;5056507;28;20402;-79
2023/10/11 13:01:41;;;;;;;8.32;3.88;;;;;;;;;;5056432;28;20924;-80
2023/10/11 13:04:17;;;;;;;8.13;3.83;;;;;;;;;;5056946;28;20458;-80
2023/10/11 13:06:49;;;;;;;8.23;3.50;;;;;;;;;;5056255;28;20384;-79
2023/10/11 13:09:15;;;;;;;7.43;3.78;;;;;;;;;;5056938;28;20850;-80
2023/10/11 13:11:44;;;;;;;6.30;3.53;;;;;;;;;;5056594;28;20432;-80
2023/10/11 13:14:18;;;;;;;8.70;3.70;;;;;;;;;;5055980;28;20781;-80
2023/10/11 13:16:45;;;;;;;10.40;3.88;;;;;;;;;;5056816;28;20468;-80
2023/10/11 13:19:17;;;;;;;13.23;5.97;;;;;;;;;;5056609;28;20393;-80
2023/10/11 13:21:44;;;;;;;9.20;4.03;;;;;;;;;;5055542;28;20385;-80
2023/10/11 13:24:12;;;;;;;7.80;3.45;;;;;;;;;;5056703;28;20431;-80
2023/10/11 13:26:43;;;;;;;8.25;3.30;;;;;;;;;;5056282;28;20479;-80
2023/10/11 13:29:18;;;;;;;13.00;4.20;;;;;;;;;;5038869;28;20390;-81
2023/10/11 13:31:48;;;;;;;7.32;4.03;;;;;;;;;;5056198;28;20501;-81
2023/10/11 13:34:14;;;;;;;8.68;3.80;;;;;;;;;;5055366;28;20397;-80
2023/10/11 13:36:41;;;;;;;9.05;3.97;;;;;;;;;;5056303;28;20385;-81
2023/10/11 13:39:25;;;;;;;10.77;3.33;;;;;;;;;;5057971;28;20385;-80
2023/10/11 13:41:52;;;;;;;11.13;3.85;;;;;;;;;;5055593;28;20390;-80
2023/10/11 13:44:19;;;;;;;9.80;3.80;;;;;;;;;;5055599;28;20450;-80
2023/10/11 13:46:51;;;;;;;10.23;3.70;;;;;;;;;;5056058;28;20381;-80
2023/10/11 13:49:24;;;;;;;17.67;4.00;;;;;;;;;;5056193;28;20395;-80
2023/10/11 13:51:50;;;;;;;19.33;4.23;;;;;;;;;;5055654;28;20477;-80
2023/10/11 13:54:31;;;;;;;11.48;3.95;;;;;;;;;;5054574;28;20480;-80
2023/10/11 13:56:59;;;;;;;50.20;7.57;;;;;;;;;;5055516;28;20700;-80
2023/10/11 13:59:25;;;;;;;15.80;4.18;;;;;;;;;;5055633;28;20389;-80
2023/10/11 14:09:56;;;;;;;8.82;3.40;;;;;;;;;;5054878;28;20424;-81
2023/10/11 14:12:34;;;;;;;8.13;3.50;;;;;;;;;;5055367;28;20440;-80
2023/10/11 14:15:08;;;;;;;8.82;3.40;;;;;;;;;;5054981;28;20390;-80
2023/10/11 14:17:38;;;;;;;9.10;3.88;;;;;;;;;;5055412;28;20723;-80
2023/10/11 14:20:05;;;;;;;5.90;3.53;;;;;;;;;;5055093;28;20397;-80
2023/10/11 14:22:32;;;;;;;11.88;3.88;;;;;;;;;;5055836;28;20392;-80
2023/10/11 14:24:59;;;;;;;8.63;3.50;;;;;;;;;;5055307;28;20856;-80
2023/10/11 14:27:25;;;;;;;10.20;3.93;;;;;;;;;;5054696;28;20452;-80
2023/10/11 14:29:51;;;;;;;8.77;3.53;;;;;;;;;;5055474;28;20447;-80
2023/10/11 14:32:17;;;;;;;7.15;3.30;;;;;;;;;;5055751;28;20440;-80
2023/10/11 14:34:47;;;;;;;8.60;3.70;;;;;;;;;;5055792;28;20393;-80
2023/10/11 14:37:19;;;;;;;7.07;3.60;;;;;;;;;;5055611;28;20404;-80
2023/10/11 14:39:48;;;;;;;6.00;3.80;;;;;;;;;;5055339;28;20386;-80
2023/10/11 14:42:15;;;;;;;5.95;3.30;;;;;;;;;;5037166;28;20381;-80
2023/10/11 14:44:41;;;;;;;5.32;3.50;;;;;;;;;;5056505;28;20428;-80
2023/10/11 14:47:10;;;;;;;8.52;3.53;;;;;;;;;;5058863;28;20456;-80
2023/10/11 14:49:36;;;;;;;7.65;3.70;;;;;;;;;;5059001;28;20385;-80
2023/10/11 14:52:07;;;;;;;7.20;3.60;;;;;;;;;;5058788;28;20421;-80
2023/10/11 14:54:33;;;;;;;9.63;3.63;;;;;;;;;;5059233;28;20459;-80
2023/10/11 14:57:00;;;;;;;11.07;3.30;;;;;;;;;;5058970;28;20389;-80
2023/10/11 14:59:26;;;;;;;17.25;4.38;;;;;;;;;;5058727;28;20708;-80
2023/10/11 15:01:52;;;;;;;7.88;3.90;;;;;;;;;;5058080;28;20416;-80
2023/10/11 15:04:18;;;;;;;8.90;3.60;;;;;;;;;;5057955;28;20754;-80
2023/10/11 15:06:49;;;;;;;15.38;8.15;;;;;;;;;;5058646;28;20385;-80
2023/10/11 15:09:16;;;;;;;35.10;7.18;;;;;;;;;;5058322;28;20396;-81
2023/10/11 15:11:42;;;;;;;11.65;4.20;;;;;;;;;;5058483;28;20500;-80
2023/10/11 15:14:08;;;;;;;15.18;3.97;;;;;;;;;;5058510;28;20435;-80
2023/10/11 15:16:35;;;;;;;10.80;3.53;;;;;;;;;;5058300;28;20393;-80
2023/10/11 15:19:02;;;;;;;8.13;3.80;;;;;;;;;;5058850;28;20440;-81
2023/10/11 15:21:28;;;;;;;6.88;3.45;;;;;;;;;;5059117;28;20850;-80
2023/10/11 15:23:55;;;;;;;12.05;3.90;;;;;;;;;;5058717;28;20447;-81
2023/10/11 15:26:21;;;;;;;9.13;3.58;;;;;;;;;;5060492;28;20381;-81
2023/10/11 15:28:51;;;;;;;7.97;3.50;;;;;;;;;;5061255;28;20392;-81
2023/10/11 15:31:18;;;;;;;14.98;4.45;;;;;;;;;;5057786;28;20937;-80
2023/10/11 15:33:45;;;;;;;7.82;3.38;;;;;;;;;;5038917;28;20494;-82
2023/10/11 15:36:11;;;;;;;11.57;3.58;;;;;;;;;;5059909;28;20389;-82
2023/10/11 15:38:37;;;;;;;5.68;3.28;;;;;;;;;;5059227;28;20474;-82
2023/10/11 15:41:07;;;;;;;5.85;3.42;;;;;;;;;;5041755;28;20405;-81
2023/10/11 15:43:39;;;;;;;5.95;3.47;;;;;;;;;;5059393;28;20891;-82
2023/10/11 15:46:07;;;;;;;7.95;3.33;;;;;;;;;;5041285;28;20389;-82
2023/10/11 15:48:34;;;;;;;9.85;3.42;;;;;;;;;;5059551;28;20420;-82
2023/10/11 15:51:10;;;;;;;6.47;3.60;;;;;;;;;;5059905;28;20530;-82
2023/10/11 15:53:42;;;;;;;5.75;3.42;;;;;;;;;;5060002;28;20446;-82